Time;durP1;ratioP1;P1;durP2;ratioP2;P2;SDS_P1;SDS_P2;PMS_P1;PMS_P2;Temp;Humidity;BMP_temperature;BMP_pressure;BME280_temperature;BME280_humidity;BME280_pressure;Samples;Min_cycle;Max_cycle;Signal;HPM_P1;HPM_P2
2022/04/30 00:02:09;;;;;;;0.98;0.50;;;19.60;51.10;;;;;;4513943;31;20266;-64
2022/04/30 00:04:40;;;;;;;1.05;0.50;;;19.50;51.00;;;;;;4513856;31;20140;-64
2022/04/30 00:07:07;;;;;;;1.08;0.47;;;19.50;51.10;;;;;;4513593;31;20139;-64
2022/04/30 00:09:34;;;;;;;1.25;0.70;;;19.50;51.10;;;;;;4514007;31;20270;-64
2022/04/30 00:12:00;;;;;;;1.17;0.60;;;19.50;51.20;;;;;;4513400;31;20116;-64
2022/04/30 00:14:27;;;;;;;0.88;0.60;;;19.50;51.20;;;;;;4513961;31;20533;-64
2022/04/30 00:16:53;;;;;;;1.92;0.50;;;19.50;52.20;;;;;;4511842;31;20140;-64
2022/04/30 00:19:21;;;;;;;2.20;0.65;;;19.40;51.20;;;;;;4513929;31;20143;-64
2022/04/30 00:21:50;;;;;;;1.05;0.70;;;19.40;51.20;;;;;;4513571;31;20245;-64
2022/04/30 00:24:16;;;;;;;1.75;0.80;;;19.40;51.20;;;;;;4513292;31;20128;-64
2022/04/30 00:26:43;;;;;;;0.70;0.50;;;19.40;51.30;;;;;;4514012;31;20143;-64
2022/04/30 00:29:10;;;;;;;1.95;0.90;;;19.40;51.30;;;;;;4512968;31;20140;-64
2022/04/30 00:31:37;;;;;;;1.10;0.70;;;19.40;51.30;;;;;;4513661;31;20216;-64
2022/04/30 00:34:03;;;;;;;1.95;0.70;;;19.40;51.40;;;;;;4513135;31;20221;-64
2022/04/30 00:36:29;;;;;;;1.08;0.60;;;19.40;51.40;;;;;;4513561;31;20548;-64
2022/04/30 00:38:56;;;;;;;0.93;0.63;;;19.40;51.40;;;;;;4513113;31;20155;-64
2022/04/30 00:41:23;;;;;;;1.00;0.60;;;19.30;51.40;;;;;;4513196;31;20135;-64
2022/04/30 00:43:51;;;;;;;1.60;0.80;;;19.30;51.40;;;;;;4513852;31;20658;-64
2022/04/30 00:46:22;;;;;;;2.03;0.60;;;19.30;51.40;;;;;;4512820;31;20151;-64
2022/04/30 00:48:48;;;;;;;1.63;0.63;;;19.30;51.40;;;;;;4513498;31;20132;-64
2022/04/30 00:51:16;;;;;;;1.15;0.63;;;19.30;51.40;;;;;;4512881;31;20151;-64
2022/04/30 00:53:48;;;;;;;1.27;0.70;;;19.30;51.50;;;;;;4513385;31;20128;-64
2022/04/30 00:56:16;;;;;;;0.98;0.73;;;19.30;51.50;;;;;;4513192;31;20221;-64
2022/04/30 00:58:47;;;;;;;1.20;0.60;;;19.20;51.40;;;;;;4512940;31;20146;-64
2022/04/30 01:01:14;;;;;;;1.88;0.75;;;19.20;51.40;;;;;;4513509;31;20142;-64
2022/04/30 01:03:40;;;;;;;0.70;0.52;;;19.20;51.40;;;;;;4512335;31;20278;-64
2022/04/30 01:06:13;;;;;;;1.30;0.73;;;19.20;51.40;;;;;;4513335;31;20143;-64
2022/04/30 01:08:39;;;;;;;1.35;0.65;;;19.20;51.40;;;;;;4512668;31;20136;-64
2022/04/30 01:11:05;;;;;;;0.85;0.43;;;19.20;51.50;;;;;;4513103;31;20124;-64
2022/04/30 01:13:37;;;;;;;1.17;0.57;;;19.20;51.50;;;;;;4512259;31;20133;-64
2022/04/30 01:16:08;;;;;;;0.80;0.65;;;19.20;51.50;;;;;;4512716;31;20179;-64
2022/04/30 01:18:35;;;;;;;1.13;0.70;;;19.20;51.50;;;;;;4513446;31;20622;-64
2022/04/30 01:21:07;;;;;;;1.10;0.63;;;19.20;51.50;;;;;;4512700;31;20216;-64
2022/04/30 01:23:34;;;;;;;0.90;0.65;;;19.10;51.50;;;;;;4513316;31;20132;-64
2022/04/30 01:26:04;;;;;;;1.10;0.68;;;19.10;51.50;;;;;;4512868;31;20217;-64
2022/04/30 01:28:30;;;;;;;0.55;0.32;;;19.10;51.50;;;;;;4512517;31;20124;-65
2022/04/30 01:30:56;;;;;;;0.77;0.65;;;19.10;51.50;;;;;;4513433;31;20140;-65
2022/04/30 01:38:58;;;;;;;1.10;0.70;;;19.10;51.50;;;;;;4512537;31;20189;-65
2022/04/30 01:41:26;;;;;;;1.02;0.70;;;19.10;51.50;;;;;;4512460;31;20152;-65
2022/04/30 01:43:52;;;;;;;0.60;0.50;;;19.00;51.40;;;;;;4513517;31;20246;-65
2022/04/30 01:46:19;;;;;;;0.60;0.60;;;19.10;51.50;;;;;;4512295;31;20140;-65
2022/04/30 01:48:45;;;;;;;1.77;0.70;;;19.10;51.50;;;;;;4512994;31;20120;-64
2022/04/30 01:51:14;;;;;;;1.00;0.60;;;19.10;51.60;;;;;;4512428;31;20136;-64
2022/04/30 01:53:42;;;;;;;1.27;0.70;;;19.00;51.40;;;;;;4511944;31;20287;-64
2022/04/30 01:56:08;;;;;;;0.70;0.60;;;19.00;51.50;;;;;;4513016;31;20258;-64
2022/04/30 01:58:34;;;;;;;1.45;0.60;;;19.00;51.50;;;;;;4512303;31;20140;-64
2022/04/30 02:01:02;;;;;;;1.30;0.63;;;19.00;51.50;;;;;;4513199;31;20162;-64
2022/04/30 02:03:28;;;;;;;1.63;0.70;;;19.00;51.60;;;;;;4512328;31;20666;-64
2022/04/30 02:05:54;;;;;;;0.68;0.52;;;19.00;51.50;;;;;;4512892;31;20120;-64
2022/04/30 02:08:20;;;;;;;0.55;0.50;;;19.00;51.50;;;;;;4512293;31;20592;-64
2022/04/30 02:10:48;;;;;;;1.10;0.60;;;19.00;51.50;;;;;;4512649;31;20523;-64
2022/04/30 02:13:19;;;;;;;0.95;0.50;;;19.00;51.50;;;;;;4512725;31;20294;-64
2022/04/30 02:15:46;;;;;;;1.25;0.70;;;18.90;51.50;;;;;;4514422;31;20179;-64
2022/04/30 02:18:13;;;;;;;1.00;0.55;;;19.00;51.50;;;;;;4515952;31;20148;-64
2022/04/30 02:20:42;;;;;;;0.90;0.57;;;18.90;51.40;;;;;;4514899;31;20139;-64
2022/04/30 02:23:09;;;;;;;1.45;0.70;;;18.90;51.40;;;;;;4505520;31;20145;-64
2022/04/30 02:25:36;;;;;;;0.95;0.60;;;18.90;51.40;;;;;;4498575;31;20128;-65
2022/04/30 02:28:05;;;;;;;1.05;0.60;;;18.90;51.50;;;;;;4499102;31;20190;-64
2022/04/30 02:30:36;;;;;;;0.70;0.50;;;18.90;51.50;;;;;;4499560;31;20142;-65
2022/04/30 02:33:08;;;;;;;0.77;0.50;;;18.90;51.50;;;;;;4498756;31;20125;-65
2022/04/30 02:35:35;;;;;;;0.57;0.57;;;18.90;51.40;;;;;;4499455;31;20128;-64
2022/04/30 02:38:05;;;;;;;2.05;0.70;;;18.90;51.50;;;;;;4508825;31;20101;-65
2022/04/30 02:40:33;;;;;;;1.00;0.57;;;18.90;51.50;;;;;;4514102;31;20201;-64
2022/04/30 02:43:08;;;;;;;1.13;0.60;;;18.90;51.50;;;;;;4514419;31;20150;-64
2022/04/30 02:45:36;;;;;;;0.60;0.60;;;18.90;51.50;;;;;;4514135;31;20240;-64
2022/04/30 02:48:03;;;;;;;0.77;0.57;;;18.90;51.50;;;;;;4514970;31;20136;-64
2022/04/30 02:50:29;;;;;;;0.88;0.65;;;18.80;51.40;;;;;;4513761;31;20754;-64
2022/04/30 02:52:55;;;;;;;1.33;0.60;;;18.80;51.40;;;;;;4514580;31;20233;-65
2022/04/30 02:55:23;;;;;;;0.45;0.40;;;18.80;51.40;;;;;;4513946;31;20144;-65
2022/04/30 03:00:40;;;;;;;0.63;0.50;;;18.80;51.40;;;;;;4512395;31;20148;-65
2022/04/30 03:03:10;;;;;;;0.70;0.57;;;18.80;51.40;;;;;;4513750;31;20246;-65
2022/04/30 03:05:39;;;;;;;0.73;0.50;;;18.80;51.40;;;;;;4503620;31;20128;-65
2022/04/30 03:08:12;;;;;;;0.50;0.40;;;18.80;51.40;;;;;;4497685;31;20518;-64
2022/04/30 03:10:42;;;;;;;0.40;0.40;;;18.80;52.40;;;;;;4497838;31;20147;-65
2022/04/30 03:13:08;;;;;;;0.60;0.50;;;18.80;51.40;;;;;;4497614;31;20152;-64
2022/04/30 03:15:35;;;;;;;0.98;0.50;;;18.80;51.40;;;;;;4497318;31;20161;-64
2022/04/30 03:23:36;;;;;;;0.57;0.57;;;18.70;51.40;;;;;;4497559;31;20124;-64
2022/04/30 03:26:11;;;;;;;0.90;0.70;;;18.70;51.40;;;;;;4497201;31;20139;-64
2022/04/30 03:28:40;;;;;;;0.75;0.47;;;18.70;51.40;;;;;;4496993;31;20263;-64
2022/04/30 03:31:09;;;;;;;1.05;0.40;;;18.70;51.40;;;;;;4497722;31;20299;-64
2022/04/30 03:33:35;;;;;;;0.77;0.50;;;18.70;51.80;;;;;;4495815;31;20139;-64
2022/04/30 03:36:02;;;;;;;1.30;0.57;;;18.70;51.40;;;;;;4497420;31;20149;-64
2022/04/30 03:38:28;;;;;;;1.20;0.60;;;18.70;51.40;;;;;;4496960;31;20673;-64
2022/04/30 03:40:54;;;;;;;0.57;0.30;;;18.70;51.40;;;;;;4496803;31;20877;-64
2022/04/30 03:43:20;;;;;;;0.63;0.50;;;18.70;51.40;;;;;;4497384;31;20143;-64
2022/04/30 03:45:48;;;;;;;0.95;0.43;;;18.70;51.40;;;;;;4496669;31;20132;-64
2022/04/30 03:48:14;;;;;;;0.40;0.40;;;18.70;51.40;;;;;;4497449;31;20167;-64
2022/04/30 03:50:42;;;;;;;0.82;0.60;;;18.70;51.40;;;;;;4496658;31;20133;-64
2022/04/30 03:53:08;;;;;;;0.75;0.60;;;18.70;51.40;;;;;;4499462;31;20144;-64
2022/04/30 03:55:36;;;;;;;0.63;0.55;;;18.70;51.40;;;;;;4496658;31;20183;-64
2022/04/30 03:58:02;;;;;;;1.10;0.70;;;18.70;51.40;;;;;;4496824;31;20190;-63
2022/04/30 04:00:28;;;;;;;1.17;0.60;;;18.60;51.30;;;;;;4498229;31;20279;-64
2022/04/30 04:02:56;;;;;;;0.77;0.50;;;18.70;51.40;;;;;;4497581;31;20144;-64
2022/04/30 04:05:22;;;;;;;0.90;0.50;;;18.70;51.40;;;;;;4498194;31;20186;-64
2022/04/30 04:07:48;;;;;;;0.75;0.57;;;18.60;51.40;;;;;;4497433;31;20631;-64
2022/04/30 04:10:13;;;;;;;1.15;0.40;;;18.60;51.40;;;;;;4497897;31;20128;-64
2022/04/30 04:12:40;;;;;;;0.60;0.50;;;18.60;51.40;;;;;;4497543;31;20140;-64
2022/04/30 04:17:52;;;;;;;1.10;0.65;;;18.60;51.40;;;;;;4497703;31;20687;-64
2022/04/30 04:20:18;;;;;;;0.40;0.30;;;18.60;51.40;;;;;;4495828;31;20196;-64
2022/04/30 04:22:45;;;;;;;0.63;0.50;;;18.60;51.40;;;;;;4497571;31;20132;-64
2022/04/30 04:27:59;;;;;;;0.50;0.43;;;18.60;51.40;;;;;;4496356;31;20148;-64
2022/04/30 04:30:27;;;;;;;0.60;0.60;;;18.60;51.40;;;;;;4495678;31;20450;-64
2022/04/30 04:32:54;;;;;;;0.68;0.50;;;18.60;51.50;;;;;;4497319;31;20140;-64
2022/04/30 04:35:20;;;;;;;0.77;0.40;;;18.60;51.40;;;;;;4496747;31;20147;-64
2022/04/30 04:37:46;;;;;;;0.45;0.45;;;18.60;51.50;;;;;;4495383;31;20117;-64
2022/04/30 04:40:13;;;;;;;0.50;0.50;;;18.50;51.40;;;;;;4496006;31;20136;-64
2022/04/30 04:42:40;;;;;;;0.98;0.47;;;18.50;51.40;;;;;;4498432;31;20500;-64
2022/04/30 04:45:08;;;;;;;0.90;0.50;;;18.50;51.40;;;;;;4497577;31;20147;-64
2022/04/30 04:47:40;;;;;;;1.17;0.50;;;18.50;51.40;;;;;;4497671;31;20136;-64
2022/04/30 04:50:09;;;;;;;1.02;0.70;;;18.50;51.40;;;;;;4497131;31;20198;-64
2022/04/30 04:52:35;;;;;;;0.75;0.52;;;18.50;51.40;;;;;;4497727;31;20190;-64
2022/04/30 04:55:01;;;;;;;0.50;0.50;;;18.50;51.40;;;;;;4496163;31;20202;-64
2022/04/30 04:57:27;;;;;;;0.80;0.50;;;18.50;51.40;;;;;;4496231;31;20156;-64
2022/04/30 04:59:54;;;;;;;0.60;0.47;;;18.50;51.40;;;;;;4495997;31;20108;-64
2022/04/30 05:02:20;;;;;;;0.57;0.40;;;18.50;51.40;;;;;;4496151;31;20191;-64
2022/04/30 05:04:46;;;;;;;0.65;0.55;;;18.50;51.40;;;;;;4497614;31;20133;-64
2022/04/30 05:07:12;;;;;;;0.47;0.47;;;18.50;51.40;;;;;;4496809;31;20239;-64
2022/04/30 05:09:38;;;;;;;0.85;0.52;;;18.50;51.40;;;;;;4497463;32;20132;-64
2022/04/30 05:12:05;;;;;;;1.60;0.50;;;18.50;51.40;;;;;;4496643;31;20270;-64
2022/04/30 05:14:32;;;;;;;0.52;0.47;;;18.50;51.40;;;;;;4497352;31;20143;-64
2022/04/30 05:16:59;;;;;;;1.20;0.60;;;18.50;51.40;;;;;;4496916;31;20120;-64
2022/04/30 05:19:25;;;;;;;0.80;0.50;;;18.50;51.50;;;;;;4497065;32;20282;-64
2022/04/30 05:21:51;;;;;;;0.57;0.57;;;18.50;51.40;;;;;;4497295;31;20121;-64
2022/04/30 05:24:17;;;;;;;0.70;0.40;;;18.50;51.40;;;;;;4496749;31;20191;-64
2022/04/30 05:26:42;;;;;;;0.73;0.55;;;18.50;51.40;;;;;;4497549;32;20178;-65
2022/04/30 05:29:08;;;;;;;0.55;0.40;;;18.40;51.40;;;;;;4495468;32;20128;-64
2022/04/30 05:31:34;;;;;;;2.15;0.60;;;18.40;51.40;;;;;;4497247;32;20123;-64
2022/04/30 05:34:00;;;;;;;0.73;0.40;;;18.50;51.50;;;;;;4496627;31;20125;-64
2022/04/30 05:36:26;;;;;;;1.00;0.47;;;18.40;51.40;;;;;;4497100;32;20141;-64
2022/04/30 05:38:52;;;;;;;0.57;0.50;;;18.40;51.50;;;;;;4496941;31;20559;-64
2022/04/30 05:41:18;;;;;;;0.60;0.40;;;18.40;51.50;;;;;;4496388;32;20528;-64
2022/04/30 05:43:44;;;;;;;0.40;0.40;;;18.40;51.50;;;;;;4497356;31;20133;-64
2022/04/30 05:46:13;;;;;;;0.52;0.40;;;18.40;51.50;;;;;;4496444;32;20109;-64
2022/04/30 05:48:40;;;;;;;0.88;0.40;;;18.40;51.50;;;;;;4498218;31;20478;-65
2022/04/30 05:51:05;;;;;;;0.60;0.40;;;18.40;51.50;;;;;;4498649;31;20125;-64
2022/04/30 05:53:31;;;;;;;0.43;0.30;;;18.40;51.50;;;;;;4500152;31;20143;-64
2022/04/30 05:55:57;;;;;;;0.30;0.30;;;18.40;51.50;;;;;;4500084;31;20128;-64
2022/04/30 05:58:24;;;;;;;0.45;0.38;;;18.40;51.50;;;;;;4499732;31;20147;-64
2022/04/30 06:00:50;;;;;;;0.60;0.43;;;18.40;51.50;;;;;;4500170;31;20198;-64
2022/04/30 06:03:15;;;;;;;1.00;0.47;;;18.40;51.50;;;;;;4499414;31;20124;-64
2022/04/30 06:05:41;;;;;;;0.75;0.38;;;18.40;51.60;;;;;;4500002;31;20116;-65
2022/04/30 06:08:08;;;;;;;0.50;0.50;;;18.40;51.60;;;;;;4499374;31;20136;-65
2022/04/30 06:10:34;;;;;;;0.98;0.40;;;18.40;51.60;;;;;;4499541;31;20317;-65
2022/04/30 06:13:00;;;;;;;0.63;0.30;;;18.40;51.60;;;;;;4498554;31;20121;-64
2022/04/30 06:15:26;;;;;;;0.50;0.50;;;18.40;51.60;;;;;;4499395;31;20120;-64
2022/04/30 06:17:52;;;;;;;1.05;0.55;;;18.40;51.60;;;;;;4500141;31;20274;-64
2022/04/30 06:20:18;;;;;;;0.93;0.50;;;18.40;51.60;;;;;;4497902;31;20132;-64
2022/04/30 06:22:44;;;;;;;0.65;0.50;;;18.40;51.70;;;;;;4499611;31;20136;-64
2022/04/30 06:25:11;;;;;;;0.47;0.40;;;18.40;51.70;;;;;;4499240;31;20124;-64
2022/04/30 06:27:37;;;;;;;0.80;0.50;;;18.40;51.70;;;;;;4499645;31;20144;-64
2022/04/30 06:30:04;;;;;;;0.55;0.43;;;18.40;51.70;;;;;;4499334;31;20109;-64
2022/04/30 06:32:30;;;;;;;0.50;0.20;;;18.40;51.80;;;;;;4499088;31;20151;-64
2022/04/30 06:34:56;;;;;;;0.75;0.50;;;18.30;51.70;;;;;;4499960;31;20140;-64
2022/04/30 06:37:22;;;;;;;2.05;0.50;;;18.30;51.70;;;;;;4498618;31;20147;-64
2022/04/30 06:39:48;;;;;;;0.77;0.38;;;18.30;51.70;;;;;;4499266;31;20206;-64
2022/04/30 06:42:14;;;;;;;0.40;0.40;;;18.30;51.80;;;;;;4498777;31;20271;-64
2022/04/30 06:44:40;;;;;;;0.50;0.50;;;18.30;51.80;;;;;;4499346;31;20245;-64
2022/04/30 06:47:07;;;;;;;0.90;0.43;;;18.30;51.70;;;;;;4499221;31;20146;-64
2022/04/30 06:49:33;;;;;;;0.60;0.43;;;18.30;51.80;;;;;;4498963;31;20198;-64
2022/04/30 06:51:58;;;;;;;0.30;0.30;;;18.30;51.80;;;;;;4499448;31;20140;-64
2022/04/30 06:57:12;;;;;;;0.32;0.32;;;18.30;52.70;;;;;;4499211;31;20186;-65
2022/04/30 06:59:42;;;;;;;0.65;0.60;;;18.30;51.80;;;;;;4498478;31;20139;-65
2022/04/30 07:02:17;;;;;;;0.80;0.45;;;18.30;51.80;;;;;;4498466;31;20125;-65
2022/04/30 07:04:46;;;;;;;0.40;0.30;;;18.30;51.80;;;;;;4499411;31;20190;-64
2022/04/30 07:07:13;;;;;;;0.70;0.32;;;18.30;51.80;;;;;;4498382;31;20259;-62
2022/04/30 07:09:39;;;;;;;1.30;0.60;;;18.30;51.90;;;;;;4497761;31;20163;-63
2022/04/30 07:12:07;;;;;;;1.30;0.65;;;18.30;51.90;;;;;;4498499;31;20478;-62
2022/04/30 07:14:37;;;;;;;1.77;0.75;;;18.30;51.70;;;;;;4498790;31;20128;-62
2022/04/30 07:17:08;;;;;;;2.10;0.82;;;18.30;51.60;;;;;;4498691;31;20133;-63
2022/04/30 07:19:34;;;;;;;1.13;0.80;;;18.30;51.60;;;;;;4498530;31;20113;-63
2022/04/30 07:22:01;;;;;;;2.40;0.70;;;18.30;51.60;;;;;;4499150;31;20559;-63
2022/04/30 07:24:27;;;;;;;3.33;0.93;;;18.30;52.70;;;;;;4498111;31;20136;-63
2022/04/30 07:26:53;;;;;;;4.00;0.90;;;18.30;52.00;;;;;;4498918;31;20132;-63
2022/04/30 07:29:19;;;;;;;3.00;0.90;;;18.30;52.20;;;;;;4498252;31;20557;-63
2022/04/30 07:31:46;;;;;;;1.58;1.00;;;18.30;52.30;;;;;;4498583;31;20129;-64
2022/04/30 07:34:12;;;;;;;9.00;1.17;;;18.30;52.50;;;;;;4498250;31;20127;-63
2022/04/30 07:36:38;;;;;;;5.85;1.23;;;18.30;52.60;;;;;;4497236;31;20151;-63
2022/04/30 07:39:05;;;;;;;3.60;1.02;;;18.30;52.60;;;;;;4498488;31;20125;-62
2022/04/30 07:41:31;;;;;;;0.95;0.80;;;18.30;52.80;;;;;;4497749;31;20147;-64
2022/04/30 07:43:57;;;;;;;2.45;1.00;;;18.30;52.70;;;;;;4498530;31;20140;-63
2022/04/30 07:46:23;;;;;;;1.92;0.88;;;18.30;52.80;;;;;;4497944;31;20159;-63
2022/04/30 07:48:50;;;;;;;1.40;0.90;;;18.30;52.70;;;;;;4498105;31;20148;-64
2022/04/30 07:51:19;;;;;;;2.28;1.00;;;18.30;52.80;;;;;;4497786;31;20133;-63
2022/04/30 07:53:47;;;;;;;2.17;1.00;;;18.30;52.80;;;;;;4498145;31;20292;-62
2022/04/30 07:56:14;;;;;;;1.38;0.93;;;18.30;52.90;;;;;;4498374;31;20329;-63
2022/04/30 07:58:40;;;;;;;4.32;1.00;;;18.30;53.00;;;;;;4497407;31;20136;-62
2022/04/30 08:01:06;;;;;;;2.08;0.90;;;18.40;53.00;;;;;;4497366;31;20210;-63
2022/04/30 08:03:33;;;;;;;2.50;1.20;;;18.40;53.10;;;;;;4497622;31;20160;-63
2022/04/30 08:05:59;;;;;;;2.65;1.10;;;18.40;53.10;;;;;;4498060;31;20141;-63
2022/04/30 08:08:27;;;;;;;1.85;0.90;;;18.30;53.00;;;;;;4497616;31;20144;-63
2022/04/30 08:10:52;;;;;;;1.70;0.95;;;18.30;53.00;;;;;;4497240;31;20113;-65
2022/04/30 08:13:18;;;;;;;1.40;0.90;;;18.30;53.00;;;;;;4497717;31;20186;-63
2022/04/30 08:15:44;;;;;;;2.97;1.00;;;18.30;53.10;;;;;;4496979;31;20140;-62
2022/04/30 08:18:11;;;;;;;2.83;1.10;;;18.30;53.00;;;;;;4497790;31;20132;-63
2022/04/30 08:20:40;;;;;;;4.30;1.20;;;18.30;53.10;;;;;;4496801;31;20156;-63
2022/04/30 08:23:07;;;;;;;3.85;1.17;;;18.40;53.10;;;;;;4497185;31;20136;-62
2022/04/30 08:25:35;;;;;;;4.15;1.10;;;18.30;53.10;;;;;;4497386;31;20136;-64
2022/04/30 08:28:04;;;;;;;3.15;0.93;;;18.40;53.20;;;;;;4503996;31;20139;-63
2022/04/30 08:30:31;;;;;;;3.83;1.23;;;18.40;53.20;;;;;;4513781;31;20262;-63
2022/04/30 08:32:57;;;;;;;2.63;1.00;;;18.40;53.20;;;;;;4513059;31;20258;-64
2022/04/30 08:35:23;;;;;;;3.40;1.00;;;18.40;53.20;;;;;;4513594;31;20154;-64
2022/04/30 08:37:49;;;;;;;1.35;0.95;;;18.40;53.20;;;;;;4513075;31;20553;-63
2022/04/30 08:40:16;;;;;;;3.47;1.10;;;18.40;53.40;;;;;;4512857;31;20282;-64
2022/04/30 08:42:42;;;;;;;3.47;0.90;;;18.40;53.40;;;;;;4513169;31;20599;-63
2022/04/30 08:45:10;;;;;;;1.98;1.08;;;18.40;53.60;;;;;;4513135;31;20128;-62
2022/04/30 08:47:43;;;;;;;3.33;1.13;;;18.50;53.60;;;;;;4513583;31;20225;-63
2022/04/30 08:50:11;;;;;;;2.63;1.20;;;18.60;53.50;;;;;;4512834;31;20758;-62
2022/04/30 08:52:38;;;;;;;3.90;1.15;;;18.70;53.30;;;;;;4508400;31;20125;-63
2022/04/30 08:55:05;;;;;;;11.23;1.63;;;18.80;53.10;;;;;;4496568;31;20222;-62
2022/04/30 08:57:32;;;;;;;3.47;1.08;;;18.90;53.00;;;;;;4497566;31;20136;-63
2022/04/30 08:59:58;;;;;;;3.08;1.10;;;19.00;52.90;;;;;;4497317;31;20234;-62
2022/04/30 09:02:25;;;;;;;3.67;1.13;;;19.10;52.90;;;;;;4497092;31;20513;-63
2022/04/30 09:04:52;;;;;;;2.97;1.10;;;19.20;52.80;;;;;;4497605;31;20567;-63
2022/04/30 09:07:20;;;;;;;2.53;1.30;;;19.30;52.70;;;;;;4496649;31;20143;-62
2022/04/30 09:09:54;;;;;;;4.90;1.60;;;19.40;52.30;;;;;;4496241;31;20190;-61
2022/04/30 09:12:20;;;;;;;4.65;1.58;;;19.50;51.80;;;;;;4495813;31;20279;-63
2022/04/30 09:14:47;;;;;;;3.38;1.70;;;19.60;51.30;;;;;;4497322;31;20109;-61
2022/04/30 09:17:17;;;;;;;6.95;1.60;;;19.60;50.70;;;;;;4497034;32;20156;-62
2022/04/30 09:19:51;;;;;;;4.55;1.50;;;19.70;50.50;;;;;;4496699;32;20198;-61
2022/04/30 09:22:28;;;;;;;5.93;1.77;;;19.80;50.30;;;;;;4497484;32;20725;-62
2022/04/30 09:24:53;;;;;;;4.85;1.63;;;20.00;50.10;;;;;;4499049;31;20140;-62
2022/04/30 09:27:19;;;;;;;3.45;1.63;;;20.00;49.80;;;;;;4500195;31;20143;-63
2022/04/30 09:29:45;;;;;;;4.40;1.75;;;20.20;49.70;;;;;;4498999;31;20297;-64
2022/04/30 09:32:22;;;;;;;2.88;1.60;;;20.30;49.60;;;;;;4499959;31;20148;-64
2022/04/30 09:37:48;;;;;;;4.25;1.60;;;20.50;49.30;;;;;;4499460;31;20282;-63
2022/04/30 09:40:14;;;;;;;4.60;1.60;;;20.60;49.20;;;;;;4499400;31;20144;-63
2022/04/30 09:42:48;;;;;;;5.40;1.70;;;20.60;48.90;;;;;;4499474;31;20230;-63
2022/04/30 09:45:41;;;;;;;1.98;1.42;;;20.70;48.90;;;;;;4499545;31;20142;-61
2022/04/30 09:53:56;;;;;;;6.63;1.60;;;20.80;48.90;;;;;;4498292;31;20147;-62
2022/04/30 09:53:57;;;;;;;7.45;1.60;;;21.00;48.60;;;;;;4507930;31;20141;-62
2022/04/30 09:56:35;;;;;;;2.78;1.67;;;21.10;48.50;;;;;;4514892;31;20147;-62
2022/04/30 09:59:05;;;;;;;3.58;1.60;;;21.10;48.60;;;;;;4515021;31;20607;-62
2022/04/30 10:01:32;;;;;;;5.88;1.45;;;21.10;48.50;;;;;;4515556;31;20144;-63
2022/04/30 10:03:59;;;;;;;3.20;1.48;;;21.10;48.60;;;;;;4514978;31;20155;-64
2022/04/30 10:06:26;;;;;;;3.55;1.67;;;21.10;48.70;;;;;;4515431;31;20147;-62
2022/04/30 10:08:52;;;;;;;5.63;1.67;;;21.10;48.80;;;;;;4515476;31;20197;-62
2022/04/30 10:11:54;;;;;;;5.47;1.60;;;21.00;48.80;;;;;;4514751;31;20185;-62
2022/04/30 10:15:05;;;;;;;4.68;1.30;;;21.00;49.10;;;;;;4515383;31;20647;-62
2022/04/30 10:17:36;;;;;;;5.25;1.30;;;20.90;49.20;;;;;;4485727;31;20263;-61
2022/04/30 10:20:14;;;;;;;5.63;1.30;;;20.90;49.40;;;;;;4514659;31;20272;-62
2022/04/30 10:22:53;;;;;;;3.60;1.48;;;20.90;49.50;;;;;;4504849;31;20136;-62
2022/04/30 10:25:47;;;;;;;3.33;1.52;;;20.90;49.70;;;;;;4512696;31;20136;-62
2022/04/30 10:28:22;;;;;;;4.88;1.48;;;20.90;49.60;;;;;;4513119;31;20120;-62
2022/04/30 10:31:04;;;;;;;4.97;1.20;;;20.90;49.60;;;;;;4514796;31;20147;-62
2022/04/30 10:33:31;;;;;;;8.20;1.35;;;20.90;49.60;;;;;;4513962;31;20128;-61
2022/04/30 10:36:11;;;;;;;3.70;1.48;;;20.90;49.60;;;;;;4513641;31;20192;-61
2022/04/30 10:38:38;;;;;;;4.35;1.50;;;20.90;49.70;;;;;;4514920;31;20124;-62
2022/04/30 10:41:08;;;;;;;3.65;1.45;;;20.80;49.80;;;;;;4513897;31;20128;-62
2022/04/30 10:43:37;;;;;;;4.20;1.45;;;20.80;49.90;;;;;;4515312;31;20146;-62
2022/04/30 10:46:05;;;;;;;4.13;1.48;;;20.70;49.90;;;;;;4514467;31;20681;-61
2022/04/30 10:48:34;;;;;;;2.85;1.30;;;20.70;50.00;;;;;;4515002;31;20193;-61
2022/04/30 10:51:10;;;;;;;6.38;1.60;;;20.60;50.00;;;;;;4514405;31;20139;-62
2022/04/30 10:53:40;;;;;;;6.90;1.80;;;20.60;50.00;;;;;;4513610;31;20770;-59
2022/04/30 10:56:06;;;;;;;8.00;2.05;;;20.50;50.00;;;;;;4515048;31;20169;-59
2022/04/30 10:58:34;;;;;;;5.75;1.50;;;20.50;50.20;;;;;;4514175;31;20909;-60
2022/04/30 11:01:19;;;;;;;8.90;1.75;;;20.40;50.20;;;;;;4514880;31;20559;-63
2022/04/30 11:03:48;;;;;;;9.93;2.15;;;20.40;50.40;;;;;;4514037;31;20136;-62
2022/04/30 11:06:19;;;;;;;10.45;1.67;;;20.30;50.60;;;;;;4514597;31;20209;-61
2022/04/30 11:09:08;;;;;;;3.53;1.65;;;20.30;50.80;;;;;;4514779;31;20142;-61
2022/04/30 11:11:36;;;;;;;8.48;1.80;;;20.20;51.00;;;;;;4513593;31;20196;-61
2022/04/30 11:14:10;;;;;;;7.82;1.98;;;20.20;51.10;;;;;;4514724;31;20561;-61
2022/04/30 11:16:49;;;;;;;4.50;1.75;;;20.10;51.10;;;;;;4513956;31;20120;-61
2022/04/30 11:19:20;;;;;;;2.78;1.70;;;20.10;51.20;;;;;;4514362;31;20270;-61
2022/04/30 11:21:54;;;;;;;2.90;1.42;;;20.10;51.20;;;;;;4514690;31;20140;-61
2022/04/30 11:24:31;;;;;;;3.63;1.55;;;20.00;51.20;;;;;;4513867;31;20202;-61
2022/04/30 11:26:59;;;;;;;5.63;1.75;;;20.00;51.30;;;;;;4507778;31;20317;-61
2022/04/30 11:29:26;;;;;;;4.88;1.85;;;20.00;51.40;;;;;;4497832;31;20147;-61
2022/04/30 11:31:54;;;;;;;5.18;1.90;;;20.00;51.50;;;;;;4498129;31;20295;-62
2022/04/30 11:34:21;;;;;;;7.93;1.83;;;19.90;51.50;;;;;;4498155;31;20148;-61
2022/04/30 11:36:48;;;;;;;2.65;1.38;;;19.90;52.50;;;;;;4502694;31;20457;-61
2022/04/30 11:39:16;;;;;;;5.03;1.67;;;19.90;51.60;;;;;;4513494;31;20124;-62
2022/04/30 11:41:48;;;;;;;3.25;1.60;;;19.80;51.70;;;;;;4498972;31;20125;-62
2022/04/30 11:44:16;;;;;;;4.10;1.85;;;19.80;51.70;;;;;;4500573;31;20124;-66
2022/04/30 11:46:45;;;;;;;5.60;1.83;;;19.80;51.70;;;;;;4511411;31;20143;-63
2022/04/30 11:49:13;;;;;;;5.07;1.80;;;19.80;51.80;;;;;;4509787;31;20148;-62
2022/04/30 11:51:41;;;;;;;3.03;1.45;;;19.80;51.90;;;;;;4508576;31;20150;-62
2022/04/30 11:54:09;;;;;;;2.65;1.80;;;19.80;51.90;;;;;;4508306;31;20116;-61
2022/04/30 11:56:36;;;;;;;5.03;1.70;;;19.80;52.00;;;;;;4503777;31;20132;-62
2022/04/30 11:59:03;;;;;;;5.80;1.60;;;19.80;52.00;;;;;;4499114;31;20136;-62
2022/04/30 12:01:31;;;;;;;3.33;1.65;;;19.80;52.10;;;;;;4499607;31;20125;-62
2022/04/30 12:04:03;;;;;;;2.53;1.45;;;19.80;52.10;;;;;;4500885;31;20160;-62
2022/04/30 12:06:29;;;;;;;3.92;1.70;;;19.70;52.10;;;;;;4511536;31;20129;-60
2022/04/30 12:08:55;;;;;;;3.47;1.80;;;19.70;52.10;;;;;;4513520;31;20116;-61
2022/04/30 12:11:22;;;;;;;6.97;1.80;;;19.70;52.20;;;;;;4511987;31;20386;-60
2022/04/30 12:14:17;;;;;;;4.63;1.73;;;19.70;53.20;;;;;;4514257;31;20143;-61
2022/04/30 12:16:45;;;;;;;3.63;1.40;;;19.70;52.20;;;;;;4506352;31;20205;-60
2022/04/30 12:25:12;;;;;;;9.00;2.05;;;19.70;52.30;;;;;;4510571;31;20136;-60
2022/04/30 12:27:39;;;;;;;4.75;1.80;;;19.70;52.10;;;;;;4513274;31;20664;-60
2022/04/30 12:30:14;;;;;;;4.72;1.88;;;19.60;52.00;;;;;;4513819;31;20569;-60
2022/04/30 12:32:59;;;;;;;4.18;1.67;;;19.60;52.00;;;;;;4513264;31;20144;-61
2022/04/30 12:35:30;;;;;;;6.20;2.08;;;19.60;51.80;;;;;;4513777;31;20128;-61
2022/04/30 12:38:06;;;;;;;5.80;2.13;;;19.60;51.70;;;;;;4513340;31;20116;-62
2022/04/30 12:40:39;;;;;;;10.85;2.00;;;19.60;51.50;;;;;;4513086;31;20128;-60
2022/04/30 12:43:06;;;;;;;4.00;2.05;;;19.60;51.40;;;;;;4513903;31;20140;-61
2022/04/30 12:45:33;;;;;;;4.32;2.10;;;19.60;51.30;;;;;;4513021;31;20497;-60
2022/04/30 12:48:00;;;;;;;5.53;2.22;;;19.60;51.20;;;;;;4513811;31;20132;-61
2022/04/30 12:50:26;;;;;;;4.40;1.60;;;19.60;51.10;;;;;;4512726;31;20124;-61
2022/04/30 12:52:53;;;;;;;7.93;2.20;;;19.60;51.00;;;;;;4513610;31;20266;-61
2022/04/30 12:55:20;;;;;;;4.70;2.13;;;19.60;51.90;;;;;;4513005;31;20221;-61
2022/04/30 12:57:47;;;;;;;4.05;2.10;;;19.60;51.00;;;;;;4512981;31;20140;-61
2022/04/30 13:00:15;;;;;;;6.07;1.80;;;19.60;50.90;;;;;;4512143;31;20132;-61
2022/04/30 13:02:42;;;;;;;5.20;2.15;;;19.60;50.80;;;;;;4512736;31;20128;-61
2022/04/30 13:05:09;;;;;;;3.95;1.67;;;19.60;50.80;;;;;;4513695;31;20140;-61
2022/04/30 13:07:38;;;;;;;5.05;2.33;;;19.60;50.70;;;;;;4512690;31;20606;-61
2022/04/30 13:15:35;;;;;;;4.43;2.03;;;19.60;50.60;;;;;;4506436;31;20116;-61
2022/04/30 13:18:02;;;;;;;2.90;1.77;;;19.60;50.60;;;;;;4497147;31;20139;-61
2022/04/30 13:20:30;;;;;;;7.60;2.08;;;19.60;50.60;;;;;;4496218;31;20210;-61
2022/04/30 13:22:59;;;;;;;5.22;2.00;;;19.60;50.60;;;;;;4496562;31;20178;-60
2022/04/30 13:25:26;;;;;;;5.63;1.75;;;19.70;50.70;;;;;;4496830;31;20129;-60
2022/04/30 13:27:52;;;;;;;3.80;2.30;;;19.70;50.60;;;;;;4496997;32;20251;-61
2022/04/30 13:30:18;;;;;;;6.10;1.90;;;19.70;50.60;;;;;;4497402;31;20636;-61
2022/04/30 13:32:48;;;;;;;6.63;1.80;;;19.70;50.60;;;;;;4496699;31;20133;-61